createdAt,value
2023-01-28T00:00:53.077Z,56.78
2023-01-28T00:03:22.115Z,56.72
2023-01-28T00:05:48.977Z,56.88
2023-01-28T00:08:15.652Z,56.64
2023-01-28T00:10:44.841Z,56.46
2023-01-28T00:13:13.497Z,56.50
2023-01-28T00:15:46.069Z,56.48
2023-01-28T00:18:13.560Z,56.16
2023-01-28T00:20:40.200Z,56.05
2023-01-28T00:23:07.460Z,56.24
2023-01-28T00:25:34.080Z,55.75
2023-01-28T00:28:00.731Z,55.65
2023-01-28T00:30:29.841Z,55.35
2023-01-28T00:32:56.914Z,55.31
2023-01-28T00:35:23.544Z,55.29
2023-01-28T00:37:55.204Z,55.70
2023-01-28T00:40:21.787Z,55.14
2023-01-28T00:42:48.523Z,55.70
2023-01-28T00:45:17.690Z,55.55
2023-01-28T00:47:45.419Z,55.20
2023-01-28T00:50:12.091Z,54.95
2023-01-28T00:52:38.860Z,54.49
2023-01-28T00:55:09.609Z,54.67
2023-01-28T00:57:36.365Z,55.19
2023-01-28T01:00:03.520Z,54.92
2023-01-28T01:02:30.294Z,55.22
2023-01-28T01:04:59.983Z,55.37
2023-01-28T01:07:41.491Z,54.74
2023-01-28T01:10:14.732Z,54.87
2023-01-28T01:12:41.473Z,55.13
2023-01-28T01:15:11.195Z,55.14
2023-01-28T01:17:38.448Z,55.41
2023-01-28T01:20:07.946Z,55.86
2023-01-28T01:22:35.163Z,55.92
2023-01-28T01:25:02.677Z,55.05
2023-01-28T01:27:29.491Z,55.52
2023-01-28T01:29:59.070Z,55.44
2023-01-28T01:32:29.529Z,55.77
2023-01-28T01:34:59.288Z,55.79
2023-01-28T01:37:25.938Z,55.32
2023-01-28T01:39:52.652Z,55.50
2023-01-28T01:42:22.147Z,55.02
2023-01-28T01:44:56.127Z,55.05
2023-01-28T01:47:26.375Z,55.20
2023-01-28T01:49:53.071Z,55.23
2023-01-28T01:52:24.934Z,55.06
2023-01-28T01:54:52.387Z,55.03
2023-01-28T01:57:21.667Z,54.86
2023-01-28T01:59:48.299Z,54.93
2023-01-28T02:02:17.509Z,55.46
2023-01-28T02:04:44.858Z,55.38
2023-01-28T02:07:16.320Z,55.64
2023-01-28T02:09:43.313Z,55.38
2023-01-28T02:12:15.618Z,55.73
2023-01-28T02:15:11.643Z,55.80
2023-01-28T02:17:38.588Z,55.80
2023-01-28T02:20:14.171Z,56.10
2023-01-28T02:22:52.084Z,55.72
2023-01-28T02:25:24.057Z,55.90
2023-01-28T02:27:50.930Z,56.50
2023-01-28T02:30:21.705Z,56.41
2023-01-28T02:32:54.935Z,56.94
2023-01-28T02:35:29.492Z,56.90
2023-01-28T02:38:00.995Z,57.02
2023-01-28T02:40:32.474Z,57.17
2023-01-28T02:42:59.549Z,57.13
2023-01-28T02:45:59.209Z,57.39
2023-01-28T02:48:28.268Z,57.57
2023-01-28T02:50:54.935Z,57.77
2023-01-28T02:53:44.439Z,57.85
2023-01-28T02:56:33.319Z,57.79
2023-01-28T02:59:30.161Z,58.03
2023-01-28T03:02:08.632Z,57.84
2023-01-28T03:04:55.945Z,57.83
2023-01-28T03:07:26.261Z,57.53
2023-01-28T03:09:53.036Z,57.64
2023-01-28T03:12:41.412Z,57.28
2023-01-28T03:15:33.864Z,57.66
2023-01-28T03:18:19.378Z,57.70
2023-01-28T03:21:09.367Z,57.80
2023-01-28T03:23:58.574Z,57.68
2023-01-28T03:26:44.052Z,57.92
2023-01-28T03:29:29.676Z,58.01
2023-01-28T03:32:15.343Z,58.04
2023-01-28T03:35:03.092Z,57.59
2023-01-28T03:37:35.125Z,58.10
2023-01-28T03:40:19.091Z,57.87
2023-01-28T03:42:48.464Z,58.14
2023-01-28T03:45:32.532Z,58.61
2023-01-28T03:48:01.207Z,58.44
2023-01-28T03:50:28.100Z,58.84
2023-01-28T03:53:14.942Z,58.72
2023-01-28T03:55:51.251Z,58.97
2023-01-28T03:58:18.177Z,59.13
2023-01-28T04:00:45.750Z,59.46
2023-01-28T04:03:16.775Z,58.95
2023-01-28T04:06:03.905Z,59.39
2023-01-28T04:08:53.576Z,59.24
2023-01-28T04:11:42.159Z,59.01
2023-01-28T04:14:09.628Z,59.07
2023-01-28T04:16:52.415Z,59.36
2023-01-28T04:19:19.084Z,59.54
2023-01-28T04:21:45.748Z,58.82
2023-01-28T04:24:16.269Z,59.05
2023-01-28T04:26:43.019Z,59.00
2023-01-28T04:29:09.642Z,59.37
2023-01-28T04:31:37.486Z,59.29
2023-01-28T04:34:22.725Z,59.27
2023-01-28T04:37:01.482Z,58.93
2023-01-28T04:39:48.867Z,59.07
2023-01-28T04:42:38.917Z,59.09
2023-01-28T04:45:29.358Z,58.82
2023-01-28T04:48:19.058Z,59.03
2023-01-28T04:50:57.366Z,59.01
2023-01-28T04:53:44.245Z,58.97
2023-01-28T04:56:27.777Z,59.03
2023-01-28T04:58:55.655Z,58.90
2023-01-28T05:01:23.098Z,58.94
2023-01-28T05:03:49.727Z,58.95
2023-01-28T05:06:22.685Z,59.07
2023-01-28T05:08:58.623Z,58.43
2023-01-28T05:11:28.257Z,58.92
2023-01-28T05:13:59.202Z,58.98
2023-01-28T05:16:34.986Z,58.83
2023-01-28T05:19:07.976Z,58.87
2023-01-28T05:21:42.964Z,59.08
2023-01-28T05:24:21.664Z,58.96
2023-01-28T05:26:48.486Z,58.81
2023-01-28T05:29:18.114Z,58.69
2023-01-28T05:31:50.604Z,58.56
2023-01-28T05:34:17.978Z,58.79
2023-01-28T05:36:44.989Z,58.44
2023-01-28T05:39:37.933Z,58.44
2023-01-28T05:42:05.108Z,58.51
2023-01-28T05:44:34.164Z,58.64
2023-01-28T05:47:23.585Z,58.63
2023-01-28T05:50:04.330Z,58.17
2023-01-28T05:52:53.674Z,58.42
2023-01-28T05:55:24.781Z,58.60
2023-01-28T05:57:54.149Z,58.25
2023-01-28T06:00:23.413Z,58.20
2023-01-28T06:02:52.641Z,58.85
2023-01-28T06:05:20.336Z,58.96
2023-01-28T06:07:47.767Z,59.15
2023-01-28T06:10:20.381Z,59.82
2023-01-28T06:12:47.562Z,60.24
2023-01-28T06:15:49.397Z,60.24
2023-01-28T06:18:38.378Z,60.64
2023-01-28T06:21:05.222Z,60.80
2023-01-28T06:23:31.892Z,60.77
2023-01-28T06:25:58.916Z,60.77
2023-01-28T06:28:26.225Z,60.82
2023-01-28T06:30:53.041Z,60.88
2023-01-28T06:33:22.701Z,60.99
2023-01-28T06:35:49.293Z,61.06
2023-01-28T06:38:19.171Z,60.71
2023-01-28T06:40:50.764Z,60.99
2023-01-28T06:43:17.608Z,60.73
2023-01-28T06:45:44.585Z,61.05
2023-01-28T06:48:13.671Z,61.98
2023-01-28T06:50:42.947Z,61.75
2023-01-28T06:53:09.563Z,61.82
2023-01-28T06:55:38.660Z,61.81
2023-01-28T06:58:07.429Z,61.83
2023-01-28T07:00:34.207Z,61.68
2023-01-28T07:03:00.894Z,61.38
2023-01-28T07:05:27.564Z,61.23
2023-01-28T07:07:54.178Z,61.90
2023-01-28T07:10:25.277Z,61.69
2023-01-28T07:12:55.014Z,62.20
2023-01-28T07:15:21.577Z,61.78
2023-01-28T07:17:48.295Z,62.63
2023-01-28T07:20:16.035Z,62.92
2023-01-28T07:22:43.487Z,62.78
2023-01-28T07:25:10.584Z,62.59
2023-01-28T07:27:40.204Z,62.74
2023-01-28T07:30:09.797Z,62.61
2023-01-28T07:32:36.355Z,62.45
2023-01-28T07:35:03.070Z,62.77
2023-01-28T07:37:30.023Z,62.32
2023-01-28T07:39:56.619Z,61.98
2023-01-28T07:42:23.391Z,61.85
2023-01-28T07:44:54.540Z,61.57
2023-01-28T07:47:21.727Z,61.13
2023-01-28T07:49:48.391Z,61.29
2023-01-28T07:52:15.816Z,61.28
2023-01-28T07:54:42.389Z,61.60
2023-01-28T07:57:11.935Z,61.43
2023-01-28T07:59:43.826Z,62.02
2023-01-28T08:02:11.658Z,61.77
2023-01-28T08:04:40.486Z,61.75
2023-01-28T08:07:09.738Z,61.63
2023-01-28T08:09:41.112Z,61.37
2023-01-28T08:12:12.432Z,61.01
2023-01-28T08:14:42.225Z,60.99
2023-01-28T08:17:08.876Z,60.85
2023-01-28T08:19:35.509Z,61.28
2023-01-28T08:22:02.324Z,61.37
2023-01-28T08:24:31.424Z,61.56
2023-01-28T08:27:05.369Z,61.31
2023-01-28T08:29:32.684Z,61.03
2023-01-28T08:32:01.807Z,61.21
2023-01-28T08:34:30.845Z,61.58
2023-01-28T08:36:57.479Z,61.43
2023-01-28T08:39:26.778Z,61.22
2023-01-28T08:41:55.922Z,60.41
2023-01-28T08:44:22.700Z,60.86
2023-01-28T08:46:52.513Z,61.26
2023-01-28T08:49:19.160Z,61.43
2023-01-28T08:51:49.130Z,61.47
2023-01-28T08:54:19.232Z,62.11
2023-01-28T08:56:48.819Z,61.53
2023-01-28T08:59:18.359Z,61.60
2023-01-28T09:01:45.167Z,61.27
2023-01-28T09:04:11.852Z,61.18
2023-01-28T09:06:38.652Z,60.32
2023-01-28T09:09:08.559Z,60.10
2023-01-28T09:11:35.390Z,59.82
2023-01-28T09:14:01.973Z,60.71
2023-01-28T09:16:31.308Z,61.17
2023-01-28T09:18:58.065Z,61.28
2023-01-28T09:21:28.156Z,60.45
2023-01-28T09:23:58.841Z,60.27
2023-01-28T09:26:25.691Z,60.48
2023-01-28T09:28:54.103Z,60.58
2023-01-28T09:31:20.908Z,60.47
2023-01-28T09:33:56.799Z,59.99
2023-01-28T09:36:23.893Z,59.25
2023-01-28T09:38:50.477Z,59.33
2023-01-28T09:41:24.229Z,58.94
2023-01-28T09:43:54.810Z,58.68
2023-01-28T09:46:23.802Z,58.38
2023-01-28T09:48:55.952Z,56.92
2023-01-28T09:51:27.200Z,58.53
2023-01-28T09:53:53.853Z,58.00
2023-01-28T09:56:27.687Z,59.04
2023-01-28T09:58:54.313Z,58.99
2023-01-28T10:01:25.631Z,57.88
2023-01-28T10:04:11.173Z,58.27
2023-01-28T10:06:49.753Z,57.64
2023-01-28T10:09:21.716Z,58.08
2023-01-28T10:12:02.840Z,57.55
2023-01-28T10:14:55.711Z,57.21
2023-01-28T10:17:25.469Z,56.94
2023-01-28T10:19:56.809Z,57.29
2023-01-28T10:22:27.316Z,57.80
2023-01-28T10:24:55.662Z,55.79
2023-01-28T10:27:23.679Z,56.86
2023-01-28T10:29:50.800Z,55.66
2023-01-28T10:32:19.840Z,55.27
2023-01-28T10:34:46.438Z,54.10
2023-01-28T10:37:13.751Z,55.21
2023-01-28T10:39:40.478Z,53.21
2023-01-28T10:42:32.333Z,53.83
2023-01-28T10:45:08.301Z,53.50
2023-01-28T10:47:45.294Z,53.87
2023-01-28T10:50:19.065Z,52.39
2023-01-28T10:52:59.080Z,51.56
2023-01-28T10:55:49.780Z,51.74
2023-01-28T10:58:18.240Z,50.31
2023-01-28T11:00:52.258Z,50.55
2023-01-28T11:03:18.915Z,50.27
2023-01-28T11:05:52.520Z,49.58
2023-01-28T11:08:19.409Z,51.17
2023-01-28T11:10:46.488Z,50.29
2023-01-28T11:13:23.421Z,50.16
2023-01-28T11:15:53.303Z,49.30
2023-01-28T11:18:30.543Z,49.08
2023-01-28T11:21:04.159Z,49.86
2023-01-28T11:23:34.657Z,49.33
2023-01-28T11:26:03.715Z,47.68
2023-01-28T11:28:34.972Z,47.11
2023-01-28T11:31:04.406Z,47.97
2023-01-28T11:33:35.035Z,47.92
2023-01-28T11:36:12.202Z,45.74
2023-01-28T11:38:47.295Z,46.40
2023-01-28T11:41:14.115Z,46.88
2023-01-28T11:43:45.811Z,46.06
2023-01-28T11:46:21.941Z,46.37
2023-01-28T11:48:55.972Z,46.93
2023-01-28T11:51:49.258Z,47.48
2023-01-28T11:54:24.347Z,47.66
2023-01-28T11:57:03.372Z,46.57
2023-01-28T11:59:42.367Z,46.81
2023-01-28T12:02:32.637Z,46.04
2023-01-28T12:05:16.133Z,46.95
2023-01-28T12:07:42.806Z,45.63
2023-01-28T12:10:29.283Z,46.50
2023-01-28T12:13:03.835Z,47.25
2023-01-28T12:15:54.717Z,45.98
2023-01-28T12:18:31.102Z,45.27
2023-01-28T12:21:19.374Z,45.25
2023-01-28T12:24:05.084Z,44.91
2023-01-28T12:26:35.769Z,43.99
2023-01-28T12:29:02.489Z,42.87
2023-01-28T12:31:47.601Z,43.44
2023-01-28T12:34:25.106Z,44.20
2023-01-28T12:36:57.482Z,41.99
2023-01-28T12:39:30.852Z,43.09
2023-01-28T12:42:18.704Z,44.33
2023-01-28T12:44:57.712Z,43.27
2023-01-28T12:47:28.981Z,43.74
2023-01-28T12:50:17.012Z,43.60
2023-01-28T12:52:53.826Z,44.35
2023-01-28T12:55:41.415Z,43.63
2023-01-28T12:58:11.713Z,44.07
2023-01-28T13:00:39.562Z,43.85
2023-01-28T13:03:15.908Z,43.45
2023-01-28T13:05:46.882Z,43.23
2023-01-28T13:08:22.046Z,43.50
2023-01-28T13:10:49.118Z,43.59
2023-01-28T13:13:18.494Z,44.81
2023-01-28T13:15:46.146Z,44.55
2023-01-28T13:18:29.069Z,44.11
2023-01-28T13:20:55.913Z,43.88
2023-01-28T13:23:42.262Z,44.08
2023-01-28T13:26:18.223Z,44.83
2023-01-28T13:28:47.752Z,44.18
2023-01-28T13:31:17.897Z,44.15
2023-01-28T13:33:50.185Z,44.61
2023-01-28T13:36:25.962Z,44.35
2023-01-28T13:39:04.869Z,44.95
2023-01-28T13:41:37.928Z,44.39
2023-01-28T13:44:19.032Z,44.52
2023-01-28T13:46:48.034Z,45.04
2023-01-28T13:49:21.411Z,45.53
2023-01-28T13:51:57.346Z,44.92
2023-01-28T13:54:24.133Z,44.18
2023-01-28T13:57:00.147Z,43.92
2023-01-28T13:59:35.562Z,44.78
2023-01-28T14:02:11.475Z,45.03
2023-01-28T14:04:58.801Z,44.60
2023-01-28T14:07:31.820Z,45.48
2023-01-28T14:10:08.587Z,45.54
2023-01-28T14:12:51.000Z,46.71
2023-01-28T14:15:25.973Z,47.41
2023-01-28T14:17:55.169Z,48.16
2023-01-28T14:20:26.577Z,48.82
2023-01-28T14:22:59.814Z,49.23
2023-01-28T14:25:33.725Z,49.13
2023-01-28T14:28:00.562Z,49.52
2023-01-28T14:30:36.459Z,49.91
2023-01-28T14:33:03.305Z,50.64
2023-01-28T14:35:34.752Z,50.95
2023-01-28T14:38:01.533Z,51.33
2023-01-28T14:40:30.305Z,51.66
2023-01-28T14:42:56.948Z,51.71
2023-01-28T14:45:29.694Z,51.72
2023-01-28T14:48:17.200Z,52.06
2023-01-28T14:50:48.116Z,52.60
2023-01-28T14:53:22.181Z,52.46
2023-01-28T14:56:08.663Z,52.47
2023-01-28T14:58:37.607Z,52.92
2023-01-28T15:01:04.379Z,53.27
2023-01-28T15:03:33.987Z,53.41
2023-01-28T15:06:12.681Z,53.35
2023-01-28T15:08:40.469Z,53.62
2023-01-28T15:11:08.405Z,54.39
2023-01-28T15:13:39.170Z,54.09
2023-01-28T15:16:06.301Z,54.52
2023-01-28T15:18:38.959Z,54.24
2023-01-28T15:21:05.747Z,54.67
2023-01-28T15:23:32.360Z,54.99
2023-01-28T15:25:59.179Z,55.25
2023-01-28T15:28:31.290Z,55.70
2023-01-28T15:30:59.766Z,56.17
2023-01-28T15:33:30.784Z,56.20
2023-01-28T15:35:58.028Z,56.16
2023-01-28T15:38:28.955Z,55.90
2023-01-28T15:40:58.589Z,55.98
2023-01-28T15:43:29.402Z,56.30
2023-01-28T15:45:57.671Z,56.91
2023-01-28T15:48:25.098Z,57.31
2023-01-28T15:51:06.892Z,57.37
2023-01-28T15:53:34.872Z,57.46
2023-01-28T15:56:11.066Z,57.10
2023-01-28T15:58:41.552Z,57.36
2023-01-28T16:01:10.872Z,57.81
2023-01-28T16:03:40.247Z,57.68
2023-01-28T16:06:10.144Z,58.12
2023-01-28T16:08:36.851Z,58.90
2023-01-28T16:11:05.854Z,59.29
2023-01-28T16:13:32.905Z,59.96
2023-01-28T16:15:59.713Z,60.10
2023-01-28T16:18:32.389Z,60.09
2023-01-28T16:21:00.177Z,60.03
2023-01-28T16:23:27.947Z,60.65
2023-01-28T16:26:07.079Z,61.61
2023-01-28T16:28:33.873Z,61.22
2023-01-28T16:31:00.598Z,60.71
2023-01-28T16:33:27.600Z,60.44
2023-01-28T16:36:08.040Z,60.87
2023-01-28T16:38:36.863Z,61.66
2023-01-28T16:41:03.564Z,62.17
2023-01-28T16:43:30.354Z,61.90
2023-01-28T16:45:57.344Z,62.00
2023-01-28T16:48:26.604Z,61.62
2023-01-28T16:50:53.298Z,61.45
2023-01-28T16:53:28.989Z,61.51
2023-01-28T16:55:55.938Z,61.17
2023-01-28T16:58:23.357Z,60.94
2023-01-28T17:00:53.572Z,61.17
2023-01-28T17:03:20.337Z,60.87
2023-01-28T17:05:47.148Z,60.79
2023-01-28T17:08:17.402Z,60.88
2023-01-28T17:10:44.188Z,60.47
2023-01-28T17:13:13.277Z,60.53
2023-01-28T17:15:40.046Z,60.45
2023-01-28T17:18:09.558Z,60.27
2023-01-28T17:20:40.165Z,60.30
2023-01-28T17:23:09.027Z,60.51
2023-01-28T17:25:41.606Z,60.34
2023-01-28T17:28:08.808Z,60.85
2023-01-28T17:30:40.267Z,60.40
2023-01-28T17:33:11.525Z,60.23
2023-01-28T17:35:38.392Z,59.84
2023-01-28T17:38:07.375Z,60.25
2023-01-28T17:40:34.018Z,59.88
2023-01-28T17:43:00.746Z,60.18
2023-01-28T17:45:35.151Z,59.76
2023-01-28T17:48:04.692Z,59.72
2023-01-28T17:50:31.410Z,59.49
2023-01-28T17:52:58.222Z,59.42
2023-01-28T17:55:27.506Z,59.68
2023-01-28T17:57:57.004Z,59.54
2023-01-28T18:00:29.933Z,59.42
2023-01-28T18:02:58.694Z,59.87
2023-01-28T18:05:25.439Z,59.43
2023-01-28T18:07:52.227Z,59.29
2023-01-28T18:10:19.571Z,59.58
2023-01-28T18:12:48.289Z,59.31
2023-01-28T18:15:15.156Z,58.92
2023-01-28T18:17:42.106Z,58.85
2023-01-28T18:20:15.693Z,59.30
2023-01-28T18:22:42.482Z,60.04
2023-01-28T18:25:11.341Z,60.08
2023-01-28T18:27:40.581Z,60.30
2023-01-28T18:30:07.578Z,60.40
2023-01-28T18:32:34.605Z,61.07
2023-01-28T18:35:03.818Z,61.17
2023-01-28T18:37:32.755Z,60.49
2023-01-28T18:39:59.357Z,60.54
2023-01-28T18:42:29.082Z,60.56
2023-01-28T18:44:58.856Z,60.39
2023-01-28T18:47:26.045Z,59.72
2023-01-28T18:49:57.688Z,59.83
2023-01-28T18:52:24.478Z,59.55
2023-01-28T18:54:54.488Z,59.42
2023-01-28T18:57:23.739Z,59.90
2023-01-28T18:59:51.054Z,59.70
2023-01-28T19:02:20.684Z,59.76
2023-01-28T19:04:50.038Z,59.72
2023-01-28T19:07:16.712Z,59.33
2023-01-28T19:09:43.559Z,59.09
2023-01-28T19:12:10.391Z,59.13
2023-01-28T19:14:42.027Z,58.97
2023-01-28T19:17:10.941Z,59.26
2023-01-28T19:19:37.719Z,59.07
2023-01-28T19:22:04.356Z,59.19
2023-01-28T19:24:33.565Z,58.69
2023-01-28T19:27:00.368Z,58.51
2023-01-28T19:29:28.613Z,58.73
2023-01-28T19:31:55.306Z,58.57
2023-01-28T19:34:22.041Z,58.44
2023-01-28T19:36:51.173Z,58.35
2023-01-28T19:39:17.962Z,58.54
2023-01-28T19:41:47.153Z,58.57
2023-01-28T19:44:16.588Z,58.52
2023-01-28T19:46:45.370Z,58.63
2023-01-28T19:49:17.363Z,58.67
2023-01-28T19:51:45.204Z,58.76
2023-01-28T19:54:11.909Z,58.55
2023-01-28T19:56:42.024Z,59.27
2023-01-28T19:59:08.676Z,58.87
2023-01-28T20:01:36.142Z,58.98
2023-01-28T20:04:02.884Z,58.62
2023-01-28T20:06:30.168Z,59.06
2023-01-28T20:08:59.537Z,58.96
2023-01-28T20:11:26.433Z,59.23
2023-01-28T20:13:53.115Z,59.57
2023-01-28T20:16:21.619Z,59.03
2023-01-28T20:18:53.356Z,59.17
2023-01-28T20:21:20.368Z,59.46
2023-01-28T20:23:52.368Z,59.09
2023-01-28T20:26:22.349Z,59.15
2023-01-28T20:28:49.375Z,59.23
2023-01-28T20:31:16.386Z,59.49
2023-01-28T20:33:43.083Z,59.57
2023-01-28T20:36:10.704Z,59.40
2023-01-28T20:38:40.621Z,59.26
2023-01-28T20:41:20.147Z,59.30
2023-01-28T20:43:49.203Z,59.46
2023-01-28T20:46:20.124Z,59.29
2023-01-28T20:48:49.145Z,59.23
2023-01-28T20:51:21.429Z,58.95
2023-01-28T20:53:48.772Z,58.99
2023-01-28T20:56:19.436Z,58.89
2023-01-28T20:58:46.582Z,59.98
2023-01-28T21:01:20.265Z,59.33
2023-01-28T21:03:47.277Z,58.90
2023-01-28T21:06:14.040Z,60.11
2023-01-28T21:08:40.734Z,59.83
2023-01-28T21:11:09.843Z,59.40
2023-01-28T21:13:36.698Z,59.42
2023-01-28T21:16:03.406Z,59.58
2023-01-28T21:18:30.175Z,59.36
2023-01-28T21:21:05.552Z,58.96
2023-01-28T21:23:32.271Z,59.18
2023-01-28T21:26:07.152Z,59.76
2023-01-28T21:28:35.962Z,59.24
2023-01-28T21:31:09.953Z,59.11
2023-01-28T21:33:36.873Z,58.96
2023-01-28T21:36:13.023Z,59.14
2023-01-28T21:38:39.947Z,59.19
2023-01-28T21:41:06.688Z,58.94
2023-01-28T21:43:33.892Z,58.92
2023-01-28T21:46:03.115Z,58.80
2023-01-28T21:48:30.637Z,59.13
2023-01-28T21:51:22.122Z,58.95
2023-01-28T21:53:51.576Z,58.90
2023-01-28T21:56:20.361Z,58.78
2023-01-28T21:59:05.652Z,58.72
2023-01-28T22:01:32.501Z,58.63
2023-01-28T22:04:03.598Z,58.77
2023-01-28T22:06:30.276Z,58.49
2023-01-28T22:08:56.924Z,58.60
2023-01-28T22:11:23.596Z,58.67
2023-01-28T22:13:50.538Z,58.44
2023-01-28T22:16:17.589Z,58.18
2023-01-28T22:18:44.291Z,58.17
2023-01-28T22:21:13.432Z,58.19
2023-01-28T22:23:42.524Z,58.14
2023-01-28T22:26:11.659Z,57.93
2023-01-28T22:28:38.403Z,57.83
2023-01-28T22:31:06.469Z,58.12
2023-01-28T22:33:36.182Z,58.25
2023-01-28T22:36:05.000Z,58.54
2023-01-28T22:38:31.568Z,58.86
2023-01-28T22:41:07.667Z,58.43
2023-01-28T22:43:34.441Z,58.64
2023-01-28T22:46:01.519Z,58.47
2023-01-28T22:48:30.429Z,57.99
2023-01-28T22:51:11.131Z,58.26
2023-01-28T22:53:38.074Z,58.11
2023-01-28T22:56:04.885Z,58.20
2023-01-28T22:58:32.046Z,58.03
2023-01-28T23:01:01.056Z,58.20
2023-01-28T23:03:27.740Z,58.43
2023-01-28T23:06:01.312Z,58.41
2023-01-28T23:08:28.054Z,58.97
2023-01-28T23:10:57.541Z,58.96
2023-01-28T23:13:27.592Z,58.67
2023-01-28T23:16:15.218Z,58.82
2023-01-28T23:18:41.941Z,58.94
2023-01-28T23:21:34.424Z,58.93
2023-01-28T23:24:24.793Z,58.84
2023-01-28T23:26:52.367Z,58.57
2023-01-28T23:29:19.740Z,58.68
2023-01-28T23:31:46.779Z,58.53
2023-01-28T23:34:14.317Z,58.09
2023-01-28T23:36:40.871Z,58.35
2023-01-28T23:39:07.482Z,58.08
2023-01-28T23:41:34.103Z,58.37
2023-01-28T23:44:00.896Z,58.33
2023-01-28T23:46:38.938Z,58.42
2023-01-28T23:49:06.746Z,58.45
2023-01-28T23:51:33.343Z,58.30
2023-01-28T23:54:02.622Z,58.22
2023-01-28T23:56:29.498Z,58.08
2023-01-28T23:58:56.523Z,57.87
